Time;durP1;ratioP1;P1;durP2;ratioP2;P2;SDS_P1;SDS_P2;PMS_P1;PMS_P2;Temp;Humidity;BMP_temperature;BMP_pressure;BME280_temperature;BME280_humidity;BME280_pressure;Samples;Min_cycle;Max_cycle;Signal;HPM_P1;HPM_P2
2021/05/04 00:02:25;;;;;;;16.40;11.10;;;8.60;84.70;;;;;;5078637;28;20512;-88
2021/05/04 00:04:51;;;;;;;16.20;11.17;;;8.60;85.30;;;;;;5060779;28;20486;-89
2021/05/04 00:07:18;;;;;;;17.37;11.33;;;8.50;85.40;;;;;;5074304;28;20452;-88
2021/05/04 00:09:44;;;;;;;18.80;11.63;;;8.40;85.60;;;;;;5078222;28;20429;-88
2021/05/04 00:12:11;;;;;;;18.03;11.77;;;8.40;85.70;;;;;;5077496;28;20439;-89
2021/05/04 00:14:39;;;;;;;10.80;9.60;;;8.40;85.40;;;;;;5063238;28;20452;-89
2021/05/04 00:17:06;;;;;;;10.70;9.67;;;8.50;85.10;;;;;;5058775;28;20475;-89
2021/05/04 00:19:32;;;;;;;13.90;10.20;;;8.50;85.70;;;;;;5059222;28;20466;-88
2021/05/04 00:21:59;;;;;;;14.50;10.60;;;8.50;85.10;;;;;;5058096;28;20447;-89
2021/05/04 00:24:25;;;;;;;11.90;10.60;;;8.50;85.20;;;;;;5058167;28;20441;-88
2021/05/04 00:26:52;;;;;;;14.30;11.43;;;8.50;85.00;;;;;;5057330;28;20440;-88
2021/05/04 00:29:19;;;;;;;11.60;10.53;;;8.50;85.10;;;;;;5061721;28;20440;-89
2021/05/04 00:31:46;;;;;;;14.33;10.83;;;8.50;85.00;;;;;;5076786;28;20431;-88
2021/05/04 00:34:12;;;;;;;12.00;10.70;;;8.50;85.70;;;;;;5068881;28;20456;-88
2021/05/04 00:36:39;;;;;;;12.90;10.23;;;8.40;85.70;;;;;;5070013;28;20476;-88
2021/05/04 00:39:05;;;;;;;15.43;11.40;;;8.50;86.00;;;;;;5067501;28;20440;-89
2021/05/04 00:41:32;;;;;;;16.03;11.87;;;8.50;86.10;;;;;;5059758;28;20444;-88
2021/05/04 00:43:58;;;;;;;13.90;10.80;;;8.40;86.10;;;;;;5058257;28;20468;-89
2021/05/04 00:46:25;;;;;;;10.43;9.00;;;8.60;86.30;;;;;;5058637;28;20448;-89
2021/05/04 00:48:53;;;;;;;11.00;9.80;;;8.60;86.00;;;;;;5068098;28;20447;-88
2021/05/04 00:51:21;;;;;;;12.80;11.50;;;8.50;86.10;;;;;;5080651;28;20491;-88
2021/05/04 00:53:47;;;;;;;13.60;12.17;;;8.60;86.80;;;;;;5066553;28;20853;-88
2021/05/04 00:56:14;;;;;;;15.20;13.60;;;8.50;85.90;;;;;;5077525;28;20452;-88
2021/05/04 00:58:42;;;;;;;19.50;15.97;;;8.50;86.20;;;;;;5069436;28;20979;-88
2021/05/04 01:01:11;;;;;;;17.40;15.67;;;8.50;86.40;;;;;;5057009;28;20441;-89
2021/05/04 01:03:38;;;;;;;16.90;15.20;;;8.50;86.50;;;;;;5056047;28;20490;-88
2021/05/04 01:06:05;;;;;;;16.17;14.77;;;8.40;86.40;;;;;;5056593;28;20452;-89
2021/05/04 01:08:32;;;;;;;19.47;16.90;;;8.50;86.90;;;;;;5057114;28;20447;-88
2021/05/04 01:10:58;;;;;;;17.97;16.37;;;8.40;86.60;;;;;;5054245;28;20449;-88
2021/05/04 01:13:24;;;;;;;20.50;18.47;;;8.40;86.30;;;;;;5075610;28;20472;-89
2021/05/04 01:15:51;;;;;;;19.53;17.50;;;8.30;87.00;;;;;;5073414;28;20993;-89
2021/05/04 01:18:18;;;;;;;20.37;18.23;;;8.20;87.70;;;;;;5056641;28;20451;-88
2021/05/04 01:20:48;;;;;;;18.17;16.57;;;8.20;88.40;;;;;;5056878;28;20440;-88
2021/05/04 01:23:14;;;;;;;15.03;13.60;;;8.20;88.90;;;;;;5056853;28;20421;-88
2021/05/04 01:25:41;;;;;;;18.43;16.57;;;8.10;88.40;;;;;;5056531;28;20452;-88
2021/05/04 01:28:07;;;;;;;18.50;16.67;;;8.10;88.70;;;;;;5067891;28;20437;-87
2021/05/04 01:30:33;;;;;;;18.87;16.77;;;8.10;88.90;;;;;;5077378;28;20446;-87
2021/05/04 01:33:00;;;;;;;22.50;16.30;;;8.10;89.00;;;;;;5077940;28;20429;-87
2021/05/04 01:35:27;;;;;;;18.37;15.40;;;8.10;89.30;;;;;;5062245;28;20451;-88
2021/05/04 01:37:55;;;;;;;20.20;17.10;;;8.00;89.20;;;;;;5074685;28;20453;-88
2021/05/04 01:40:21;;;;;;;16.40;14.23;;;8.00;89.70;;;;;;5073404;28;20455;-89
2021/05/04 01:42:47;;;;;;;18.60;16.80;;;8.00;89.60;;;;;;5061570;28;20945;-88
2021/05/04 01:45:14;;;;;;;17.00;14.10;;;8.00;89.90;;;;;;5060489;28;20976;-88
2021/05/04 01:47:41;;;;;;;20.87;15.47;;;8.00;90.00;;;;;;5056458;28;20499;-89
2021/05/04 01:50:09;;;;;;;17.50;15.80;;;8.00;89.80;;;;;;5057780;28;20439;-89
2021/05/04 01:52:35;;;;;;;14.87;13.33;;;8.00;89.90;;;;;;5053785;28;20451;-88
2021/05/04 01:55:04;;;;;;;15.17;13.67;;;8.00;90.00;;;;;;5061766;28;20475;-87
2021/05/04 01:57:30;;;;;;;15.80;13.93;;;8.00;90.20;;;;;;5078953;28;20471;-88
2021/05/04 01:59:57;;;;;;;17.80;14.63;;;8.00;90.30;;;;;;5078377;28;20547;-88
2021/05/04 02:02:23;;;;;;;15.47;13.83;;;8.00;90.30;;;;;;5069578;28;21019;-88
2021/05/04 02:04:49;;;;;;;16.83;14.17;;;7.90;90.40;;;;;;5056932;28;20459;-89
2021/05/04 02:07:15;;;;;;;14.70;13.20;;;7.90;90.70;;;;;;5056965;28;20440;-88
2021/05/04 02:09:41;;;;;;;15.10;13.60;;;7.80;90.80;;;;;;5056632;28;20445;-89
2021/05/04 02:12:09;;;;;;;15.00;13.40;;;7.80;91.00;;;;;;5055392;28;20459;-89
2021/05/04 02:14:35;;;;;;;15.73;14.13;;;7.80;91.00;;;;;;5055429;28;20479;-88
2021/05/04 02:17:01;;;;;;;15.33;12.00;;;7.70;91.20;;;;;;5055057;28;20475;-88
2021/05/04 02:19:28;;;;;;;16.87;12.53;;;7.70;91.40;;;;;;5055478;28;20432;-88
2021/05/04 02:21:54;;;;;;;13.40;12.20;;;7.70;91.40;;;;;;5057090;28;20433;-88
2021/05/04 02:24:20;;;;;;;13.37;11.77;;;7.70;91.70;;;;;;5075439;28;20464;-88
2021/05/04 02:26:46;;;;;;;13.17;11.83;;;7.70;91.80;;;;;;5074859;28;20448;-88
2021/05/04 02:29:14;;;;;;;14.57;12.27;;;7.80;91.70;;;;;;5070556;28;20427;-88
2021/05/04 02:31:40;;;;;;;12.83;11.60;;;7.70;91.60;;;;;;5077284;28;20429;-87
2021/05/04 02:34:06;;;;;;;15.97;11.80;;;7.70;91.60;;;;;;5073774;28;20450;-87
2021/05/04 02:36:32;;;;;;;14.80;11.90;;;7.70;91.60;;;;;;5077544;28;20472;-88
2021/05/04 02:38:58;;;;;;;13.80;11.40;;;7.80;91.40;;;;;;5077125;28;20428;-88
2021/05/04 02:41:25;;;;;;;16.30;11.60;;;7.80;91.20;;;;;;5071375;28;20428;-88
2021/05/04 02:43:51;;;;;;;12.43;10.87;;;7.80;91.10;;;;;;5073331;28;20459;-88
2021/05/04 02:46:18;;;;;;;13.40;10.93;;;7.90;90.90;;;;;;5067133;28;20437;-88
2021/05/04 02:48:45;;;;;;;13.50;10.60;;;7.90;90.60;;;;;;5072837;28;20459;-89
2021/05/04 02:51:12;;;;;;;14.83;13.33;;;8.00;90.60;;;;;;5060862;28;20445;-88
2021/05/04 02:53:39;;;;;;;14.00;12.13;;;8.00;90.70;;;;;;5066956;28;20482;-88
2021/05/04 02:56:07;;;;;;;13.50;12.10;;;8.10;90.50;;;;;;5078119;28;20439;-87
2021/05/04 02:58:34;;;;;;;15.57;13.27;;;8.10;90.50;;;;;;5078016;28;20455;-87
2021/05/04 03:01:01;;;;;;;14.73;10.90;;;8.10;90.40;;;;;;5078108;28;20568;-87
2021/05/04 03:03:28;;;;;;;14.73;11.93;;;8.10;90.40;;;;;;5073938;28;20512;-87
2021/05/04 03:05:55;;;;;;;14.47;11.40;;;8.10;90.40;;;;;;5078379;28;20416;-86
2021/05/04 03:08:21;;;;;;;11.87;10.67;;;8.00;90.30;;;;;;5077596;28;20459;-87
2021/05/04 03:10:48;;;;;;;13.00;11.60;;;8.10;90.30;;;;;;5078250;28;20423;-87
2021/05/04 03:13:14;;;;;;;13.13;10.47;;;8.10;90.00;;;;;;5078839;28;20455;-87
2021/05/04 03:15:40;;;;;;;10.93;9.63;;;8.10;89.90;;;;;;5068988;28;20958;-88
2021/05/04 03:18:07;;;;;;;11.40;10.20;;;8.00;90.00;;;;;;5061066;28;20567;-88
2021/05/04 03:20:35;;;;;;;10.87;9.67;;;8.00;90.10;;;;;;5054601;28;20440;-88
2021/05/04 03:23:01;;;;;;;11.90;9.43;;;8.10;89.60;;;;;;5054308;28;20433;-89
2021/05/04 03:25:28;;;;;;;9.47;8.50;;;8.10;89.70;;;;;;5054866;28;20506;-89
2021/05/04 03:27:57;;;;;;;11.93;8.80;;;8.10;89.50;;;;;;5055076;28;20445;-88
2021/05/04 03:30:24;;;;;;;11.37;10.00;;;8.20;89.30;;;;;;5054317;28;20440;-87
2021/05/04 03:32:50;;;;;;;11.83;9.20;;;8.10;89.50;;;;;;5077504;28;20505;-87
2021/05/04 03:35:17;;;;;;;10.03;9.00;;;8.20;89.70;;;;;;5074805;28;21286;-88
2021/05/04 03:37:45;;;;;;;12.10;9.57;;;8.20;89.30;;;;;;5067148;28;20495;-88
2021/05/04 03:40:12;;;;;;;11.00;9.30;;;8.10;89.30;;;;;;5077046;28;20440;-87
2021/05/04 03:42:38;;;;;;;9.43;8.53;;;8.10;89.60;;;;;;5055953;28;20436;-88
2021/05/04 03:45:05;;;;;;;12.53;8.07;;;8.10;90.00;;;;;;5063024;28;20453;-89
2021/05/04 03:47:31;;;;;;;10.33;9.07;;;8.20;90.00;;;;;;5076520;28;20433;-87
2021/05/04 03:49:58;;;;;;;10.47;9.53;;;8.30;90.10;;;;;;5058746;28;20527;-88
2021/05/04 03:52:24;;;;;;;12.50;8.53;;;8.20;90.10;;;;;;5056701;28;20960;-87
2021/05/04 03:54:51;;;;;;;13.90;9.90;;;8.20;89.90;;;;;;5054730;28;20471;-88
2021/05/04 03:57:17;;;;;;;8.90;8.03;;;8.20;90.20;;;;;;5054429;28;20471;-89
2021/05/04 03:59:44;;;;;;;9.83;8.83;;;8.20;90.20;;;;;;5053120;28;20522;-89
2021/05/04 04:02:10;;;;;;;10.13;8.77;;;8.10;90.50;;;;;;5054517;28;20453;-89
2021/05/04 04:04:36;;;;;;;8.83;8.03;;;8.20;90.60;;;;;;5054621;28;20905;-89
2021/05/04 04:07:03;;;;;;;10.77;9.23;;;8.20;90.50;;;;;;5069945;28;20454;-89
2021/05/04 04:09:29;;;;;;;10.90;7.77;;;8.30;90.40;;;;;;5076603;28;20440;-90
2021/05/04 04:11:56;;;;;;;8.50;6.57;;;8.30;90.30;;;;;;5066481;28;20448;-89
2021/05/04 04:14:22;;;;;;;9.00;7.30;;;8.30;89.60;;;;;;5054517;28;21031;-89
2021/05/04 04:16:48;;;;;;;8.60;7.30;;;8.30;90.00;;;;;;5054432;28;20539;-89
2021/05/04 04:19:15;;;;;;;10.10;6.90;;;8.40;88.80;;;;;;5053942;28;20437;-88
2021/05/04 04:21:41;;;;;;;7.43;6.73;;;8.50;89.40;;;;;;5055093;28;20450;-89
2021/05/04 04:24:08;;;;;;;6.90;6.20;;;8.50;88.30;;;;;;5049485;28;20508;-89
2021/05/04 04:26:35;;;;;;;8.80;6.63;;;8.60;88.40;;;;;;5053537;28;20448;-89
2021/05/04 04:29:02;;;;;;;8.60;5.90;;;8.70;87.50;;;;;;5054583;28;20463;-87
2021/05/04 04:31:28;;;;;;;7.97;5.17;;;8.80;87.30;;;;;;5053948;28;20441;-88
2021/05/04 04:33:54;;;;;;;5.43;4.93;;;8.90;86.40;;;;;;5053958;28;20468;-87
2021/05/04 04:36:21;;;;;;;4.67;4.27;;;8.90;85.80;;;;;;5055285;28;20475;-89
2021/05/04 04:38:47;;;;;;;5.77;4.50;;;9.00;84.60;;;;;;5053714;28;20539;-88
2021/05/04 04:41:13;;;;;;;4.50;4.10;;;9.10;84.00;;;;;;5056979;28;20507;-87
2021/05/04 04:43:40;;;;;;;10.07;4.60;;;9.10;83.60;;;;;;5058672;28;20469;-88
2021/05/04 04:46:07;;;;;;;5.53;4.20;;;9.20;83.20;;;;;;5056663;28;20455;-88
2021/05/04 04:48:33;;;;;;;5.10;4.60;;;9.30;82.80;;;;;;5057167;28;20437;-89
2021/05/04 04:50:59;;;;;;;5.73;4.47;;;9.40;82.00;;;;;;5057390;28;20432;-89
2021/05/04 04:53:26;;;;;;;5.93;4.13;;;9.40;81.70;;;;;;5072884;28;20551;-88
2021/05/04 04:58:20;;;;;;;4.33;3.93;;;9.60;81.20;;;;;;5054123;28;20506;-87
2021/05/04 05:00:46;;;;;;;5.07;4.63;;;9.60;81.00;;;;;;5056251;28;20451;-87
2021/05/04 05:03:13;;;;;;;6.20;5.40;;;9.60;80.70;;;;;;5058641;28;21392;-88
2021/05/04 05:05:40;;;;;;;7.27;5.33;;;9.70;80.50;;;;;;5057076;28;20445;-87
2021/05/04 05:08:06;;;;;;;5.90;5.30;;;9.80;80.10;;;;;;5045953;28;20463;-87
2021/05/04 05:10:32;;;;;;;7.73;5.73;;;9.80;80.40;;;;;;5046458;28;20436;-87
2021/05/04 05:12:58;;;;;;;5.40;4.90;;;9.80;80.90;;;;;;5046723;28;20449;-87
2021/05/04 05:15:25;;;;;;;8.37;5.77;;;9.80;80.60;;;;;;5044061;28;20444;-87
2021/05/04 05:17:51;;;;;;;6.40;5.80;;;9.80;80.40;;;;;;5046653;28;20569;-87
2021/05/04 05:20:19;;;;;;;6.47;5.87;;;9.80;80.80;;;;;;5047720;28;20968;-87
2021/05/04 05:22:46;;;;;;;6.10;4.87;;;9.90;81.00;;;;;;5044065;28;20445;-87
2021/05/04 05:25:12;;;;;;;7.33;5.03;;;10.00;78.90;;;;;;5042628;28;20444;-87
2021/05/04 05:27:39;;;;;;;5.83;5.07;;;10.00;78.50;;;;;;5049558;28;20489;-86
2021/05/04 05:30:07;;;;;;;8.90;3.90;;;10.10;77.90;;;;;;5031828;28;20448;-86
2021/05/04 05:32:33;;;;;;;6.07;4.50;;;10.10;77.70;;;;;;5045146;28;20456;-87
2021/05/04 05:35:00;;;;;;;6.10;4.80;;;10.20;77.80;;;;;;5044367;28;20498;-87
2021/05/04 05:37:27;;;;;;;6.30;4.50;;;10.20;77.50;;;;;;5042384;28;20834;-87
2021/05/04 05:39:53;;;;;;;5.37;4.43;;;10.20;77.30;;;;;;5053462;28;20444;-88
2021/05/04 05:42:20;;;;;;;5.73;5.00;;;10.20;77.70;;;;;;5036284;28;20461;-87
2021/05/04 05:44:46;;;;;;;8.90;4.70;;;10.30;77.70;;;;;;5039630;28;20445;-86
2021/05/04 05:47:13;;;;;;;6.10;4.40;;;10.40;77.30;;;;;;5028511;28;20473;-86
2021/05/04 05:49:39;;;;;;;5.07;4.60;;;10.40;76.70;;;;;;5016889;28;20450;-88
2021/05/04 05:52:06;;;;;;;5.60;4.90;;;10.50;76.00;;;;;;5026817;28;20445;-88
2021/05/04 05:54:33;;;;;;;7.10;5.17;;;10.60;76.00;;;;;;5036314;28;20449;-85
2021/05/04 05:57:00;;;;;;;7.07;5.20;;;10.70;76.30;;;;;;5043865;28;20850;-82
2021/05/04 05:59:26;;;;;;;7.63;5.17;;;10.70;76.60;;;;;;5041782;28;20437;-84
2021/05/04 06:01:52;;;;;;;7.43;5.10;;;10.80;75.00;;;;;;5034784;28;20450;-83
2021/05/04 06:04:18;;;;;;;7.93;6.00;;;10.80;75.50;;;;;;5021893;28;20450;-84
2021/05/04 06:06:44;;;;;;;5.53;4.80;;;10.90;75.00;;;;;;5023948;28;20499;-84
2021/05/04 06:09:11;;;;;;;5.20;4.70;;;11.00;75.00;;;;;;5024830;28;20438;-83
2021/05/04 06:11:38;;;;;;;5.10;4.23;;;11.10;74.80;;;;;;5024732;28;20450;-83
2021/05/04 06:14:04;;;;;;;10.70;5.03;;;11.20;74.70;;;;;;5023756;28;20450;-83
2021/05/04 06:16:30;;;;;;;6.03;5.00;;;11.30;74.00;;;;;;5024244;28;20505;-83
2021/05/04 06:18:57;;;;;;;6.10;5.30;;;11.30;73.20;;;;;;5025629;28;20951;-82
2021/05/04 06:21:23;;;;;;;5.23;4.40;;;11.50;73.00;;;;;;5032991;28;20468;-83
2021/05/04 06:23:51;;;;;;;10.03;4.97;;;11.50;73.80;;;;;;5044036;28;20449;-83
2021/05/04 06:26:18;;;;;;;6.47;5.20;;;11.70;73.00;;;;;;5036469;28;20473;-86
2021/05/04 06:28:48;;;;;;;6.57;4.70;;;11.80;72.60;;;;;;5035207;28;20453;-85
2021/05/04 06:31:15;;;;;;;4.30;3.90;;;11.90;72.40;;;;;;5028498;28;20451;-85
2021/05/04 06:33:42;;;;;;;7.40;4.20;;;12.10;71.30;;;;;;5014848;28;20456;-85
2021/05/04 06:36:12;;;;;;;8.37;3.90;;;12.20;71.00;;;;;;5015862;28;20528;-86
2021/05/04 06:38:38;;;;;;;4.80;4.10;;;12.30;71.10;;;;;;5018385;28;20502;-86
2021/05/04 06:41:04;;;;;;;5.93;4.10;;;12.40;70.60;;;;;;5051322;28;20630;-85
2021/05/04 06:43:31;;;;;;;4.77;4.37;;;12.50;69.80;;;;;;5049059;28;20472;-85
2021/05/04 06:45:59;;;;;;;5.67;4.23;;;12.60;69.60;;;;;;5047283;28;20441;-85
2021/05/04 06:48:25;;;;;;;4.97;3.60;;;12.70;69.50;;;;;;5038084;28;20437;-85
2021/05/04 06:50:52;;;;;;;5.00;4.37;;;12.70;68.50;;;;;;5021019;28;20451;-86
2021/05/04 06:53:18;;;;;;;5.83;3.60;;;12.80;68.50;;;;;;5015526;28;20981;-85
2021/05/04 06:55:46;;;;;;;4.93;3.53;;;12.90;68.50;;;;;;5016788;28;20442;-85
2021/05/04 06:58:13;;;;;;;4.90;3.90;;;13.00;67.90;;;;;;5016932;28;20482;-86
2021/05/04 07:00:39;;;;;;;3.50;3.20;;;13.00;67.10;;;;;;5031814;28;20441;-86
2021/05/04 07:03:06;;;;;;;8.37;3.00;;;13.20;66.20;;;;;;5034535;28;20479;-86
2021/05/04 07:05:33;;;;;;;5.27;3.20;;;13.20;65.00;;;;;;5033884;28;20456;-87
2021/05/04 07:07:59;;;;;;;2.80;2.43;;;13.40;64.10;;;;;;5035211;28;20833;-87
2021/05/04 07:10:25;;;;;;;2.83;2.53;;;13.40;61.90;;;;;;5022662;28;20455;-86
2021/05/04 07:12:52;;;;;;;3.90;2.50;;;13.60;60.30;;;;;;5035111;28;20507;-86
2021/05/04 07:15:18;;;;;;;4.03;3.10;;;13.70;60.20;;;;;;5038943;28;20978;-87
2021/05/04 07:17:44;;;;;;;3.93;2.67;;;13.80;60.70;;;;;;5043376;28;20515;-85
2021/05/04 07:20:12;;;;;;;2.47;2.27;;;14.00;59.40;;;;;;5027709;28;20450;-86
2021/05/04 07:22:39;;;;;;;2.80;2.47;;;14.00;58.30;;;;;;5018840;28;20451;-86
2021/05/04 07:25:06;;;;;;;4.23;2.57;;;14.10;59.30;;;;;;5031006;28;20449;-85
2021/05/04 07:27:33;;;;;;;2.37;2.17;;;14.20;58.70;;;;;;5027726;28;20463;-86
2021/05/04 07:29:59;;;;;;;6.93;2.53;;;14.40;58.20;;;;;;5025797;28;20453;-85
2021/05/04 07:32:25;;;;;;;2.93;2.40;;;14.60;58.00;;;;;;5047127;28;20505;-86
2021/05/04 07:34:52;;;;;;;3.13;2.47;;;14.70;57.40;;;;;;5044271;28;20454;-86
2021/05/04 07:37:19;;;;;;;3.40;2.20;;;14.90;57.10;;;;;;5036350;28;20492;-86
2021/05/04 07:39:45;;;;;;;3.73;2.50;;;15.00;56.80;;;;;;5030450;28;20847;-85
2021/05/04 07:42:12;;;;;;;2.43;2.23;;;15.00;56.00;;;;;;5023820;28;20450;-85
2021/05/04 07:44:38;;;;;;;3.47;2.60;;;15.20;56.20;;;;;;5023482;28;20453;-86
2021/05/04 07:47:05;;;;;;;2.27;2.00;;;15.40;55.50;;;;;;5019086;28;20464;-87
2021/05/04 07:49:37;;;;;;;5.27;2.70;;;15.90;54.90;;;;;;5021475;28;20450;-86
2021/05/04 07:52:16;;;;;;;5.73;2.13;;;16.30;54.20;;;;;;5055427;28;20417;-86
2021/05/04 07:55:03;;;;;;;2.60;2.10;;;16.70;53.10;;;;;;5047080;28;20485;-85
2021/05/04 07:57:29;;;;;;;3.50;1.97;;;16.80;52.60;;;;;;5016236;28;20533;-86
2021/05/04 07:59:56;;;;;;;4.50;2.60;;;16.70;52.30;;;;;;5021853;28;20456;-86
2021/05/04 08:02:22;;;;;;;3.43;2.03;;;16.60;52.20;;;;;;5035856;28;20453;-86
2021/05/04 08:04:48;;;;;;;5.47;2.50;;;16.50;51.60;;;;;;5034900;28;20478;-86
2021/05/04 08:07:14;;;;;;;7.97;2.70;;;16.50;52.40;;;;;;5034671;28;20458;-87
2021/05/04 08:09:41;;;;;;;3.43;1.97;;;16.60;52.00;;;;;;5016266;28;20457;-87
2021/05/04 08:12:09;;;;;;;10.10;2.40;;;16.40;51.90;;;;;;5015033;28;20461;-86
2021/05/04 08:14:35;;;;;;;4.67;2.50;;;16.50;52.70;;;;;;5015902;28;20464;-86
2021/05/04 08:17:02;;;;;;;2.97;2.40;;;16.50;52.10;;;;;;5018039;28;20524;-86
2021/05/04 08:19:29;;;;;;;4.67;2.13;;;16.60;52.00;;;;;;5035061;28;20476;-86
2021/05/04 08:21:56;;;;;;;5.97;2.90;;;16.50;51.40;;;;;;5038637;28;21020;-86
2021/05/04 08:24:22;;;;;;;3.13;2.13;;;16.40;51.00;;;;;;5039311;28;20453;-85
2021/05/04 08:26:48;;;;;;;6.23;2.40;;;16.70;51.30;;;;;;5037819;28;20472;-85
2021/05/04 08:29:15;;;;;;;8.37;2.27;;;16.70;51.40;;;;;;5024778;28;20461;-85
2021/05/04 08:32:31;;;;;;;4.43;2.07;;;16.80;50.50;;;;;;5019238;28;20457;-86
2021/05/04 08:34:57;;;;;;;7.03;2.20;;;16.80;50.80;;;;;;5019298;28;20458;-86
2021/05/04 08:37:24;;;;;;;4.40;1.87;;;17.00;50.50;;;;;;5025288;28;20482;-86
2021/05/04 08:39:50;;;;;;;4.67;2.00;;;17.20;50.10;;;;;;5039791;28;20437;-86
2021/05/04 08:42:17;;;;;;;4.13;2.77;;;17.40;50.60;;;;;;5040450;28;20453;-86
2021/05/04 08:44:49;;;;;;;4.10;2.40;;;17.50;50.40;;;;;;5038765;28;20444;-85
2021/05/04 08:47:17;;;;;;;6.53;2.40;;;17.60;49.80;;;;;;5042684;28;20473;-86
2021/05/04 08:49:44;;;;;;;4.57;1.80;;;17.50;49.30;;;;;;5036317;28;20445;-86
2021/05/04 08:52:10;;;;;;;2.60;2.40;;;17.80;49.50;;;;;;5020414;28;20438;-86
2021/05/04 08:54:36;;;;;;;14.17;4.20;;;17.80;48.70;;;;;;5017339;28;20454;-86
2021/05/04 08:57:03;;;;;;;5.23;2.20;;;17.70;48.70;;;;;;5019091;28;20525;-86
2021/05/04 08:59:29;;;;;;;10.87;3.53;;;17.90;48.60;;;;;;5036642;28;21093;-86
2021/05/04 09:01:56;;;;;;;6.37;2.53;;;18.00;48.30;;;;;;5043016;28;20456;-86
2021/05/04 09:04:29;;;;;;;6.43;2.50;;;17.80;48.00;;;;;;5052892;28;20541;-87
2021/05/04 09:07:01;;;;;;;9.33;2.37;;;17.80;48.10;;;;;;5046241;28;20479;-86
2021/05/04 09:09:31;;;;;;;2.80;2.30;;;17.70;49.00;;;;;;5022741;28;20454;-87
2021/05/04 09:12:05;;;;;;;8.10;2.53;;;17.70;48.90;;;;;;5017931;28;20442;-87
2021/05/04 09:14:42;;;;;;;13.70;3.00;;;17.50;49.00;;;;;;5018273;28;20462;-86
2021/05/04 09:17:15;;;;;;;9.33;2.87;;;17.30;49.60;;;;;;5033789;28;20479;-87
2021/05/04 09:19:59;;;;;;;2.57;2.30;;;17.40;50.10;;;;;;5054216;28;20444;-85
2021/05/04 09:22:36;;;;;;;2.47;2.27;;;17.30;50.00;;;;;;5044840;28;20452;-86
2021/05/04 09:25:04;;;;;;;3.97;2.80;;;17.50;50.50;;;;;;5038540;28;20464;-87
2021/05/04 09:27:32;;;;;;;4.10;2.67;;;17.70;50.00;;;;;;5050373;28;20463;-86
2021/05/04 09:29:59;;;;;;;11.70;2.93;;;17.90;49.20;;;;;;5058571;28;20456;-86
2021/05/04 09:32:29;;;;;;;6.70;2.30;;;17.70;48.70;;;;;;5059738;28;20437;-85
2021/05/04 09:34:57;;;;;;;3.83;2.50;;;17.70;49.60;;;;;;5058858;28;20437;-86
2021/05/04 09:37:28;;;;;;;3.87;2.40;;;17.70;48.80;;;;;;5054404;28;20519;-86
2021/05/04 09:39:55;;;;;;;2.33;1.90;;;18.00;48.50;;;;;;5038849;28;20461;-87
2021/05/04 09:42:22;;;;;;;4.60;2.30;;;18.40;48.20;;;;;;5044134;28;20441;-86
2021/05/04 09:44:49;;;;;;;3.00;2.50;;;19.30;47.70;;;;;;5058721;28;20445;-85
2021/05/04 09:47:23;;;;;;;5.23;2.47;;;19.70;46.30;;;;;;5049068;28;20461;-85
2021/05/04 09:49:54;;;;;;;4.10;2.67;;;19.90;45.20;;;;;;5037122;28;20446;-86
2021/05/04 09:55:21;;;;;;;4.57;2.40;;;20.30;45.10;;;;;;5008440;28;20907;-87
2021/05/04 09:57:50;;;;;;;8.17;2.30;;;20.50;43.80;;;;;;5027398;28;20485;-86
2021/05/04 10:00:18;;;;;;;5.53;2.57;;;20.80;43.70;;;;;;5027927;28;20449;-87
2021/05/04 10:02:48;;;;;;;2.57;2.37;;;20.50;43.60;;;;;;5039132;28;20445;-85
2021/05/04 10:05:18;;;;;;;3.23;2.17;;;20.30;43.80;;;;;;5034799;28;20446;-85
2021/05/04 10:07:45;;;;;;;3.53;2.73;;;21.00;44.40;;;;;;5043740;28;20462;-86
2021/05/04 10:10:14;;;;;;;5.40;3.57;;;21.30;42.70;;;;;;5038583;28;20458;-86
2021/05/04 10:12:42;;;;;;;4.93;2.50;;;21.50;42.80;;;;;;5038321;28;20460;-86
2021/05/04 10:15:10;;;;;;;9.23;2.47;;;21.70;41.60;;;;;;5037459;28;20808;-86
2021/05/04 10:17:40;;;;;;;4.63;3.50;;;22.10;41.50;;;;;;5026102;28;20495;-87
2021/05/04 10:20:09;;;;;;;3.73;2.80;;;22.10;40.70;;;;;;5018637;28;20433;-87
2021/05/04 10:22:37;;;;;;;5.33;2.33;;;21.90;40.70;;;;;;5019356;28;20445;-86
2021/05/04 10:25:05;;;;;;;2.40;2.20;;;22.50;40.60;;;;;;5021881;28;21027;-86
2021/05/04 10:27:33;;;;;;;4.57;2.40;;;23.90;39.50;;;;;;5044918;28;20441;-86
2021/05/04 10:30:01;;;;;;;4.10;2.43;;;23.00;37.30;;;;;;5045643;28;20448;-86
2021/05/04 10:35:57;;;;;;;5.13;2.40;;;20.50;40.30;;;;;;4991286;28;20997;-86
2021/05/04 10:38:24;;;;;;;5.00;2.60;;;19.90;41.40;;;;;;5018037;28;20593;-86
2021/05/04 10:41:00;;;;;;;9.93;3.33;;;19.90;42.10;;;;;;5025652;28;20438;-86
2021/05/04 10:43:41;;;;;;;6.70;2.83;;;20.40;41.70;;;;;;5025524;28;20429;-86
2021/05/04 10:46:12;;;;;;;4.47;2.77;;;21.00;40.60;;;;;;5020109;28;20465;-85
2021/05/04 10:48:49;;;;;;;6.13;2.40;;;20.40;41.20;;;;;;5035532;28;20455;-86
2021/05/04 10:51:17;;;;;;;6.57;2.10;;;19.90;42.10;;;;;;5025743;28;20444;-86
2021/05/04 10:54:04;;;;;;;4.97;2.00;;;19.20;42.50;;;;;;5019387;28;20807;-86
2021/05/04 11:08:28;;;;;;;8.70;3.73;;;18.90;43.10;;;;;;5036420;28;20461;-88
2021/05/04 11:32:09;;;;;;;2.10;1.90;;;19.10;44.00;;;;;;4995590;28;20460;-89
2021/05/04 11:38:27;;;;;;;3.83;2.03;;;19.20;43.50;;;;;;5002035;28;20892;-89
2021/05/04 11:41:10;;;;;;;4.73;2.77;;;18.60;43.60;;;;;;5039266;28;20460;-89
2021/05/04 11:46:43;;;;;;;4.70;2.67;;;18.40;45.50;;;;;;5047343;28;20450;-89
2021/05/04 12:03:29;;;;;;;2.87;2.10;;;18.60;46.70;;;;;;4831719;29;20443;-88
2021/05/04 12:10:05;;;;;;;3.37;2.40;;;18.40;47.50;;;;;;4827651;29;20935;-88
2021/05/04 12:12:53;;;;;;;5.57;3.00;;;18.40;47.70;;;;;;4856733;29;20474;-88
2021/05/04 12:15:47;;;;;;;3.57;2.57;;;18.50;48.10;;;;;;4872543;29;20449;-89
2021/05/04 12:18:32;;;;;;;4.70;2.50;;;18.40;48.50;;;;;;5025885;28;20481;-89
2021/05/04 12:21:24;;;;;;;;;;;;;;;;;;;;;
2021/05/04 12:24:11;;;;;;;3.30;2.03;;;18.20;48.80;;;;;;5039989;28;20441;-89
2021/05/04 12:26:53;;;;;;;3.70;2.30;;;18.00;50.20;;;;;;5040468;28;20453;-88
2021/05/04 12:29:39;;;;;;;3.90;1.87;;;17.70;50.60;;;;;;5036710;28;20508;-88
2021/05/04 12:32:20;;;;;;;2.90;2.30;;;17.60;51.80;;;;;;5040209;28;20710;-88
2021/05/04 12:34:50;;;;;;;4.17;2.70;;;17.90;52.10;;;;;;5037139;28;20862;-88
2021/05/04 12:37:30;;;;;;;5.00;2.90;;;18.30;52.10;;;;;;5035864;28;20481;-89
2021/05/04 12:40:17;;;;;;;4.17;3.30;;;18.90;51.60;;;;;;5033379;28;20443;-88
2021/05/04 12:43:32;;;;;;;4.07;3.43;;;19.10;52.20;;;;;;5055452;28;20443;-87
2021/05/04 12:46:22;;;;;;;3.77;2.57;;;19.50;52.60;;;;;;5045037;28;20503;-88
2021/05/04 12:49:10;;;;;;;3.13;2.40;;;19.70;52.00;;;;;;5049802;28;20453;-87
2021/05/04 12:54:45;;;;;;;4.97;2.40;;;19.90;52.10;;;;;;5048664;28;20430;-88
2021/05/04 12:57:37;;;;;;;5.03;2.70;;;19.70;52.90;;;;;;5052875;28;20484;-88
2021/05/04 13:00:20;;;;;;;3.83;2.50;;;19.80;52.70;;;;;;5046188;28;20511;-88
2021/05/04 13:07:08;;;;;;;2.80;2.60;;;20.20;51.70;;;;;;4994184;28;20798;-89
2021/05/04 13:10:24;;;;;;;3.40;2.20;;;20.60;49.50;;;;;;5045791;28;20491;-89
2021/05/04 13:28:29;;;;;;;4.30;3.50;;;20.30;49.60;;;;;;4980018;28;21154;-90
2021/05/04 13:34:13;;;;;;;3.87;2.80;;;19.40;51.20;;;;;;4911914;28;20857;-89
2021/05/04 13:37:18;;;;;;;5.67;2.60;;;19.10;51.80;;;;;;5010366;28;20453;-89
2021/05/04 13:49:55;;;;;;;2.63;2.43;;;18.50;52.90;;;;;;4950486;28;20470;-89
2021/05/04 13:56:09;;;;;;;3.67;3.03;;;18.80;52.80;;;;;;4976813;28;20457;-87
2021/05/04 13:59:38;;;;;;;4.77;4.30;;;18.60;53.60;;;;;;4965080;29;20532;-88
2021/05/04 14:33:48;;;;;;;4.00;3.37;;;18.70;54.80;;;;;;4940821;29;21031;-88
2021/05/04 14:57:34;;;;;;;2.87;2.10;;;16.80;62.50;;;;;;5023707;28;20468;-88
2021/05/04 15:00:35;;;;;;;3.57;2.67;;;16.60;63.70;;;;;;5038335;28;20453;-86
2021/05/04 15:03:11;;;;;;;3.67;2.60;;;16.10;64.70;;;;;;5022884;28;20488;-88
2021/05/04 15:12:02;;;;;;;2.67;2.17;;;16.70;67.60;;;;;;4985089;28;20975;-87
2021/05/04 15:15:15;;;;;;;5.00;3.60;;;16.50;65.70;;;;;;5039572;28;20460;-87
2021/05/04 15:18:03;;;;;;;3.93;3.30;;;16.70;70.00;;;;;;5040137;28;20487;-88
2021/05/04 15:27:09;;;;;;;;;;;;;;;;;;;;;
2021/05/04 15:37:55;;;;;;;3.70;3.00;;;15.20;73.60;;;;;;4855590;29;20469;-87
2021/05/04 16:06:32;;;;;;;4.03;3.20;;;14.00;88.80;;;;;;5054097;28;20420;-88
2021/05/04 16:09:17;;;;;;;4.63;4.23;;;14.10;89.70;;;;;;5034975;28;20457;-89
2021/05/04 16:11:56;;;;;;;5.13;3.13;;;14.20;90.80;;;;;;5037390;28;20436;-88
2021/05/04 16:14:30;;;;;;;4.60;3.20;;;14.20;91.20;;;;;;5035731;28;20489;-88
2021/05/04 16:17:06;;;;;;;5.10;3.27;;;14.20;90.80;;;;;;5035915;28;20535;-88
2021/05/04 16:19:41;;;;;;;3.47;3.17;;;14.10;91.30;;;;;;5033580;28;20445;-89
2021/05/04 16:22:33;;;;;;;3.30;3.10;;;14.00;91.10;;;;;;5034296;28;20850;-89
2021/05/04 16:25:09;;;;;;;3.23;2.90;;;13.90;91.90;;;;;;5034584;28;20437;-89
2021/05/04 16:27:47;;;;;;;3.57;3.27;;;13.90;91.90;;;;;;5036009;28;20462;-89
2021/05/04 16:30:19;;;;;;;3.60;3.30;;;13.90;91.40;;;;;;5040239;28;20449;-88